sensor_id;sensor_type;location;lat;lon;timestamp;P1;durP1;ratioP1;P2;durP2;ratioP2
10523;SDS011;5310;48.638;9.060;2024-03-08T00:00:43;1.10;;;1.10;;
10523;SDS011;5310;48.638;9.060;2024-03-08T00:03:09;1.10;;;1.10;;
10523;SDS011;5310;48.638;9.060;2024-03-08T00:05:35;1.10;;;1.10;;
10523;SDS011;5310;48.638;9.060;2024-03-08T00:08:01;1.10;;;1.10;;
10523;SDS011;5310;48.638;9.060;2024-03-08T00:10:27;1.10;;;1.10;;
10523;SDS011;5310;48.638;9.060;2024-03-08T00:12:53;1.20;;;1.20;;
10523;SDS011;5310;48.638;9.060;2024-03-08T00:15:20;1.10;;;1.10;;
10523;SDS011;5310;48.638;9.060;2024-03-08T00:17:48;1.10;;;1.10;;
10523;SDS011;5310;48.638;9.060;2024-03-08T00:20:14;1.10;;;1.10;;
10523;SDS011;5310;48.638;9.060;2024-03-08T00:22:42;1.20;;;1.20;;
10523;SDS011;5310;48.638;9.060;2024-03-08T00:25:09;1.10;;;1.10;;
10523;SDS011;5310;48.638;9.060;2024-03-08T00:27:35;1.17;;;1.17;;
10523;SDS011;5310;48.638;9.060;2024-03-08T00:30:01;1.30;;;1.30;;
10523;SDS011;5310;48.638;9.060;2024-03-08T00:32:27;1.10;;;1.10;;
10523;SDS011;5310;48.638;9.060;2024-03-08T00:34:53;1.20;;;1.20;;
10523;SDS011;5310;48.638;9.060;2024-03-08T00:37:19;1.20;;;1.20;;
10523;SDS011;5310;48.638;9.060;2024-03-08T00:39:47;1.20;;;1.20;;
10523;SDS011;5310;48.638;9.060;2024-03-08T00:42:14;1.13;;;1.13;;
10523;SDS011;5310;48.638;9.060;2024-03-08T00:44:40;1.20;;;1.20;;
10523;SDS011;5310;48.638;9.060;2024-03-08T00:47:06;1.10;;;1.10;;
10523;SDS011;5310;48.638;9.060;2024-03-08T00:49:32;1.10;;;1.10;;
10523;SDS011;5310;48.638;9.060;2024-03-08T00:51:58;1.20;;;1.20;;
10523;SDS011;5310;48.638;9.060;2024-03-08T00:54:24;1.20;;;1.20;;
10523;SDS011;5310;48.638;9.060;2024-03-08T00:56:50;1.10;;;1.10;;
10523;SDS011;5310;48.638;9.060;2024-03-08T00:59:16;1.20;;;1.20;;
10523;SDS011;5310;48.638;9.060;2024-03-08T01:01:42;1.10;;;1.10;;
10523;SDS011;5310;48.638;9.060;2024-03-08T01:04:09;1.20;;;1.20;;
10523;SDS011;5310;48.638;9.060;2024-03-08T01:06:34;1.10;;;1.10;;
10523;SDS011;5310;48.638;9.060;2024-03-08T01:09:00;1.20;;;1.20;;
10523;SDS011;5310;48.638;9.060;2024-03-08T01:11:27;1.20;;;1.20;;
10523;SDS011;5310;48.638;9.060;2024-03-08T01:13:53;1.20;;;1.20;;
10523;SDS011;5310;48.638;9.060;2024-03-08T01:16:19;1.20;;;1.20;;
10523;SDS011;5310;48.638;9.060;2024-03-08T01:18:46;1.20;;;1.20;;
10523;SDS011;5310;48.638;9.060;2024-03-08T01:21:12;1.20;;;1.20;;
10523;SDS011;5310;48.638;9.060;2024-03-08T01:23:38;1.20;;;1.20;;
10523;SDS011;5310;48.638;9.060;2024-03-08T01:26:03;1.20;;;1.20;;
10523;SDS011;5310;48.638;9.060;2024-03-08T01:28:30;1.13;;;1.13;;
10523;SDS011;5310;48.638;9.060;2024-03-08T01:30:56;1.20;;;1.20;;
10523;SDS011;5310;48.638;9.060;2024-03-08T01:33:23;1.23;;;1.23;;
10523;SDS011;5310;48.638;9.060;2024-03-08T01:35:50;1.30;;;1.30;;
10523;SDS011;5310;48.638;9.060;2024-03-08T01:38:16;1.20;;;1.20;;
10523;SDS011;5310;48.638;9.060;2024-03-08T01:40:42;1.20;;;1.20;;
10523;SDS011;5310;48.638;9.060;2024-03-08T01:43:21;1.20;;;1.20;;
10523;SDS011;5310;48.638;9.060;2024-03-08T01:45:53;1.20;;;1.20;;
10523;SDS011;5310;48.638;9.060;2024-03-08T01:48:19;1.30;;;1.30;;
10523;SDS011;5310;48.638;9.060;2024-03-08T01:50:48;1.20;;;1.20;;
10523;SDS011;5310;48.638;9.060;2024-03-08T01:53:17;1.20;;;1.20;;
10523;SDS011;5310;48.638;9.060;2024-03-08T01:55:44;1.20;;;1.20;;
10523;SDS011;5310;48.638;9.060;2024-03-08T01:58:11;1.23;;;1.23;;
10523;SDS011;5310;48.638;9.060;2024-03-08T02:00:40;1.20;;;1.20;;
10523;SDS011;5310;48.638;9.060;2024-03-08T02:03:08;1.20;;;1.20;;
10523;SDS011;5310;48.638;9.060;2024-03-08T02:05:35;1.20;;;1.20;;
10523;SDS011;5310;48.638;9.060;2024-03-08T02:08:01;1.20;;;1.20;;
10523;SDS011;5310;48.638;9.060;2024-03-08T02:10:27;1.20;;;1.20;;
10523;SDS011;5310;48.638;9.060;2024-03-08T02:12:53;1.30;;;1.30;;
10523;SDS011;5310;48.638;9.060;2024-03-08T02:15:19;1.20;;;1.20;;
10523;SDS011;5310;48.638;9.060;2024-03-08T02:17:46;1.20;;;1.20;;
10523;SDS011;5310;48.638;9.060;2024-03-08T02:20:12;1.23;;;1.23;;
10523;SDS011;5310;48.638;9.060;2024-03-08T02:22:38;1.30;;;1.30;;
10523;SDS011;5310;48.638;9.060;2024-03-08T02:25:04;1.20;;;1.20;;
10523;SDS011;5310;48.638;9.060;2024-03-08T02:27:30;1.20;;;1.20;;
10523;SDS011;5310;48.638;9.060;2024-03-08T02:29:59;1.20;;;1.20;;
10523;SDS011;5310;48.638;9.060;2024-03-08T02:32:25;1.30;;;1.30;;
10523;SDS011;5310;48.638;9.060;2024-03-08T02:34:51;1.27;;;1.27;;
10523;SDS011;5310;48.638;9.060;2024-03-08T02:37:21;1.20;;;1.20;;
10523;SDS011;5310;48.638;9.060;2024-03-08T02:39:47;1.20;;;1.20;;
10523;SDS011;5310;48.638;9.060;2024-03-08T02:42:13;1.23;;;1.23;;
10523;SDS011;5310;48.638;9.060;2024-03-08T02:44:42;1.20;;;1.20;;
10523;SDS011;5310;48.638;9.060;2024-03-08T02:47:09;1.30;;;1.30;;
10523;SDS011;5310;48.638;9.060;2024-03-08T02:49:35;1.20;;;1.20;;
10523;SDS011;5310;48.638;9.060;2024-03-08T02:52:02;1.20;;;1.20;;
10523;SDS011;5310;48.638;9.060;2024-03-08T02:54:28;1.30;;;1.30;;
10523;SDS011;5310;48.638;9.060;2024-03-08T02:56:54;1.30;;;1.30;;
10523;SDS011;5310;48.638;9.060;2024-03-08T02:59:21;1.27;;;1.27;;
10523;SDS011;5310;48.638;9.060;2024-03-08T03:01:48;1.20;;;1.20;;
10523;SDS011;5310;48.638;9.060;2024-03-08T03:04:14;1.20;;;1.20;;
10523;SDS011;5310;48.638;9.060;2024-03-08T03:06:40;1.27;;;1.27;;
10523;SDS011;5310;48.638;9.060;2024-03-08T03:09:06;1.20;;;1.20;;
10523;SDS011;5310;48.638;9.060;2024-03-08T03:11:32;1.20;;;1.20;;
10523;SDS011;5310;48.638;9.060;2024-03-08T03:13:58;1.20;;;1.20;;
10523;SDS011;5310;48.638;9.060;2024-03-08T03:16:24;1.20;;;1.20;;
10523;SDS011;5310;48.638;9.060;2024-03-08T03:18:50;1.20;;;1.20;;
10523;SDS011;5310;48.638;9.060;2024-03-08T03:21:16;1.30;;;1.30;;
10523;SDS011;5310;48.638;9.060;2024-03-08T03:23:42;1.30;;;1.30;;
10523;SDS011;5310;48.638;9.060;2024-03-08T03:26:09;1.20;;;1.20;;
10523;SDS011;5310;48.638;9.060;2024-03-08T03:28:38;1.20;;;1.20;;
10523;SDS011;5310;48.638;9.060;2024-03-08T03:31:07;1.20;;;1.20;;
10523;SDS011;5310;48.638;9.060;2024-03-08T03:33:39;1.20;;;1.20;;
10523;SDS011;5310;48.638;9.060;2024-03-08T03:36:05;1.20;;;1.20;;
10523;SDS011;5310;48.638;9.060;2024-03-08T03:38:30;1.20;;;1.20;;
10523;SDS011;5310;48.638;9.060;2024-03-08T03:40:56;1.20;;;1.20;;
10523;SDS011;5310;48.638;9.060;2024-03-08T03:43:29;1.20;;;1.20;;
10523;SDS011;5310;48.638;9.060;2024-03-08T03:45:55;1.30;;;1.30;;
10523;SDS011;5310;48.638;9.060;2024-03-08T03:48:20;1.30;;;1.30;;
10523;SDS011;5310;48.638;9.060;2024-03-08T03:50:46;1.30;;;1.30;;
10523;SDS011;5310;48.638;9.060;2024-03-08T03:53:12;1.30;;;1.30;;
10523;SDS011;5310;48.638;9.060;2024-03-08T03:55:38;1.20;;;1.20;;
10523;SDS011;5310;48.638;9.060;2024-03-08T03:58:04;1.10;;;1.10;;
10523;SDS011;5310;48.638;9.060;2024-03-08T04:00:30;1.23;;;1.23;;
10523;SDS011;5310;48.638;9.060;2024-03-08T04:02:57;1.20;;;1.20;;
10523;SDS011;5310;48.638;9.060;2024-03-08T04:05:25;1.20;;;1.20;;
10523;SDS011;5310;48.638;9.060;2024-03-08T04:07:51;1.20;;;1.20;;
10523;SDS011;5310;48.638;9.060;2024-03-08T04:10:17;1.30;;;1.30;;
10523;SDS011;5310;48.638;9.060;2024-03-08T04:12:43;1.30;;;1.30;;
10523;SDS011;5310;48.638;9.060;2024-03-08T04:15:09;1.20;;;1.20;;
10523;SDS011;5310;48.638;9.060;2024-03-08T04:17:35;1.30;;;1.30;;
10523;SDS011;5310;48.638;9.060;2024-03-08T04:20:05;1.23;;;1.23;;
10523;SDS011;5310;48.638;9.060;2024-03-08T04:22:39;1.30;;;1.30;;
10523;SDS011;5310;48.638;9.060;2024-03-08T04:25:06;1.30;;;1.30;;
10523;SDS011;5310;48.638;9.060;2024-03-08T04:27:35;1.20;;;1.20;;
10523;SDS011;5310;48.638;9.060;2024-03-08T04:30:01;1.27;;;1.27;;
10523;SDS011;5310;48.638;9.060;2024-03-08T04:32:27;1.23;;;1.23;;
10523;SDS011;5310;48.638;9.060;2024-03-08T04:34:54;1.30;;;1.30;;
10523;SDS011;5310;48.638;9.060;2024-03-08T04:37:20;1.20;;;1.20;;
10523;SDS011;5310;48.638;9.060;2024-03-08T04:39:47;1.27;;;1.27;;
10523;SDS011;5310;48.638;9.060;2024-03-08T04:42:14;1.30;;;1.30;;
10523;SDS011;5310;48.638;9.060;2024-03-08T04:44:40;1.30;;;1.30;;
10523;SDS011;5310;48.638;9.060;2024-03-08T04:47:06;1.20;;;1.20;;
10523;SDS011;5310;48.638;9.060;2024-03-08T04:49:33;1.30;;;1.30;;
10523;SDS011;5310;48.638;9.060;2024-03-08T04:52:02;1.20;;;1.20;;
10523;SDS011;5310;48.638;9.060;2024-03-08T04:54:28;1.20;;;1.20;;
10523;SDS011;5310;48.638;9.060;2024-03-08T04:56:54;1.30;;;1.30;;
10523;SDS011;5310;48.638;9.060;2024-03-08T04:59:20;1.30;;;1.30;;
10523;SDS011;5310;48.638;9.060;2024-03-08T05:01:46;1.27;;;1.27;;
10523;SDS011;5310;48.638;9.060;2024-03-08T05:04:13;1.23;;;1.23;;
10523;SDS011;5310;48.638;9.060;2024-03-08T05:06:40;1.20;;;1.20;;
10523;SDS011;5310;48.638;9.060;2024-03-08T05:09:06;1.30;;;1.30;;
10523;SDS011;5310;48.638;9.060;2024-03-08T05:11:44;1.30;;;1.30;;
10523;SDS011;5310;48.638;9.060;2024-03-08T05:14:11;1.20;;;1.20;;
10523;SDS011;5310;48.638;9.060;2024-03-08T05:16:45;1.20;;;1.20;;
10523;SDS011;5310;48.638;9.060;2024-03-08T05:19:14;1.30;;;1.30;;
10523;SDS011;5310;48.638;9.060;2024-03-08T05:21:42;1.30;;;1.30;;
10523;SDS011;5310;48.638;9.060;2024-03-08T05:24:09;1.20;;;1.20;;
10523;SDS011;5310;48.638;9.060;2024-03-08T05:26:35;1.20;;;1.20;;
10523;SDS011;5310;48.638;9.060;2024-03-08T05:29:02;1.20;;;1.20;;
10523;SDS011;5310;48.638;9.060;2024-03-08T05:31:28;1.30;;;1.30;;
10523;SDS011;5310;48.638;9.060;2024-03-08T05:33:54;1.27;;;1.27;;
10523;SDS011;5310;48.638;9.060;2024-03-08T05:36:20;1.20;;;1.20;;
10523;SDS011;5310;48.638;9.060;2024-03-08T05:38:46;1.30;;;1.30;;
10523;SDS011;5310;48.638;9.060;2024-03-08T05:41:14;1.23;;;1.23;;
10523;SDS011;5310;48.638;9.060;2024-03-08T05:43:40;1.30;;;1.30;;
10523;SDS011;5310;48.638;9.060;2024-03-08T05:46:07;1.20;;;1.20;;
10523;SDS011;5310;48.638;9.060;2024-03-08T05:48:33;1.30;;;1.30;;
10523;SDS011;5310;48.638;9.060;2024-03-08T05:51:01;1.30;;;1.30;;
10523;SDS011;5310;48.638;9.060;2024-03-08T05:53:27;1.20;;;1.20;;
10523;SDS011;5310;48.638;9.060;2024-03-08T05:55:56;1.20;;;1.20;;
10523;SDS011;5310;48.638;9.060;2024-03-08T05:58:22;1.30;;;1.30;;
10523;SDS011;5310;48.638;9.060;2024-03-08T06:00:48;1.20;;;1.20;;
10523;SDS011;5310;48.638;9.060;2024-03-08T06:03:15;1.30;;;1.30;;
10523;SDS011;5310;48.638;9.060;2024-03-08T06:05:41;1.20;;;1.20;;
10523;SDS011;5310;48.638;9.060;2024-03-08T06:08:07;1.30;;;1.30;;
10523;SDS011;5310;48.638;9.060;2024-03-08T06:10:32;1.30;;;1.30;;
10523;SDS011;5310;48.638;9.060;2024-03-08T06:12:58;1.20;;;1.20;;
10523;SDS011;5310;48.638;9.060;2024-03-08T06:15:24;1.20;;;1.20;;
10523;SDS011;5310;48.638;9.060;2024-03-08T06:17:50;1.20;;;1.20;;
10523;SDS011;5310;48.638;9.060;2024-03-08T06:20:19;1.20;;;1.20;;
10523;SDS011;5310;48.638;9.060;2024-03-08T06:22:45;1.30;;;1.30;;
10523;SDS011;5310;48.638;9.060;2024-03-08T06:25:11;1.20;;;1.20;;
10523;SDS011;5310;48.638;9.060;2024-03-08T06:27:41;1.20;;;1.20;;
10523;SDS011;5310;48.638;9.060;2024-03-08T06:30:07;1.30;;;1.30;;
10523;SDS011;5310;48.638;9.060;2024-03-08T06:32:35;1.23;;;1.23;;
10523;SDS011;5310;48.638;9.060;2024-03-08T06:35:01;1.20;;;1.20;;
10523;SDS011;5310;48.638;9.060;2024-03-08T06:37:31;1.30;;;1.30;;
10523;SDS011;5310;48.638;9.060;2024-03-08T06:39:56;1.10;;;1.10;;
10523;SDS011;5310;48.638;9.060;2024-03-08T06:42:23;1.20;;;1.20;;
10523;SDS011;5310;48.638;9.060;2024-03-08T06:44:49;1.20;;;1.20;;
10523;SDS011;5310;48.638;9.060;2024-03-08T06:47:15;1.20;;;1.20;;
10523;SDS011;5310;48.638;9.060;2024-03-08T06:49:44;1.20;;;1.20;;
10523;SDS011;5310;48.638;9.060;2024-03-08T06:52:10;1.27;;;1.27;;
10523;SDS011;5310;48.638;9.060;2024-03-08T06:54:36;1.27;;;1.27;;
10523;SDS011;5310;48.638;9.060;2024-03-08T06:57:05;1.23;;;1.23;;
10523;SDS011;5310;48.638;9.060;2024-03-08T06:59:31;1.20;;;1.20;;
10523;SDS011;5310;48.638;9.060;2024-03-08T07:01:57;1.20;;;1.20;;
10523;SDS011;5310;48.638;9.060;2024-03-08T07:04:26;1.20;;;1.20;;
10523;SDS011;5310;48.638;9.060;2024-03-08T07:06:55;1.20;;;1.20;;
10523;SDS011;5310;48.638;9.060;2024-03-08T07:09:21;1.27;;;1.27;;
10523;SDS011;5310;48.638;9.060;2024-03-08T07:11:47;1.20;;;1.20;;
10523;SDS011;5310;48.638;9.060;2024-03-08T07:14:19;1.20;;;1.20;;
10523;SDS011;5310;48.638;9.060;2024-03-08T07:16:46;1.20;;;1.20;;
10523;SDS011;5310;48.638;9.060;2024-03-08T07:19:12;1.30;;;1.30;;
10523;SDS011;5310;48.638;9.060;2024-03-08T07:21:38;1.20;;;1.20;;
10523;SDS011;5310;48.638;9.060;2024-03-08T07:24:04;1.30;;;1.30;;
10523;SDS011;5310;48.638;9.060;2024-03-08T07:26:43;1.20;;;1.20;;
10523;SDS011;5310;48.638;9.060;2024-03-08T07:29:09;1.20;;;1.20;;
10523;SDS011;5310;48.638;9.060;2024-03-08T07:31:35;1.20;;;1.20;;
10523;SDS011;5310;48.638;9.060;2024-03-08T07:34:07;1.20;;;1.20;;
10523;SDS011;5310;48.638;9.060;2024-03-08T07:36:35;1.20;;;1.20;;
10523;SDS011;5310;48.638;9.060;2024-03-08T07:39:01;1.20;;;1.20;;
10523;SDS011;5310;48.638;9.060;2024-03-08T07:41:30;1.20;;;1.20;;
10523;SDS011;5310;48.638;9.060;2024-03-08T07:43:56;1.20;;;1.20;;
10523;SDS011;5310;48.638;9.060;2024-03-08T07:46:22;1.20;;;1.20;;
10523;SDS011;5310;48.638;9.060;2024-03-08T07:48:48;1.20;;;1.20;;
10523;SDS011;5310;48.638;9.060;2024-03-08T07:51:17;1.20;;;1.20;;
10523;SDS011;5310;48.638;9.060;2024-03-08T07:53:43;1.10;;;1.10;;
10523;SDS011;5310;48.638;9.060;2024-03-08T07:56:08;1.10;;;1.10;;
10523;SDS011;5310;48.638;9.060;2024-03-08T07:58:38;1.20;;;1.20;;
10523;SDS011;5310;48.638;9.060;2024-03-08T08:01:05;1.20;;;1.20;;
10523;SDS011;5310;48.638;9.060;2024-03-08T08:03:31;1.20;;;1.20;;
10523;SDS011;5310;48.638;9.060;2024-03-08T08:05:57;1.20;;;1.20;;
10523;SDS011;5310;48.638;9.060;2024-03-08T08:08:23;1.20;;;1.20;;
10523;SDS011;5310;48.638;9.060;2024-03-08T08:10:51;1.23;;;1.23;;
10523;SDS011;5310;48.638;9.060;2024-03-08T08:13:17;1.10;;;1.10;;
10523;SDS011;5310;48.638;9.060;2024-03-08T08:15:43;1.20;;;1.20;;
10523;SDS011;5310;48.638;9.060;2024-03-08T08:18:09;1.10;;;1.10;;
10523;SDS011;5310;48.638;9.060;2024-03-08T08:20:35;1.10;;;1.10;;
10523;SDS011;5310;48.638;9.060;2024-03-08T08:23:01;1.20;;;1.20;;
10523;SDS011;5310;48.638;9.060;2024-03-08T08:25:27;1.20;;;1.20;;
10523;SDS011;5310;48.638;9.060;2024-03-08T08:27:53;1.20;;;1.20;;
10523;SDS011;5310;48.638;9.060;2024-03-08T08:30:19;1.10;;;1.10;;
10523;SDS011;5310;48.638;9.060;2024-03-08T08:32:45;1.20;;;1.20;;
10523;SDS011;5310;48.638;9.060;2024-03-08T08:35:13;1.10;;;1.10;;
10523;SDS011;5310;48.638;9.060;2024-03-08T08:37:39;1.03;;;1.03;;
10523;SDS011;5310;48.638;9.060;2024-03-08T08:40:05;1.10;;;1.10;;
10523;SDS011;5310;48.638;9.060;2024-03-08T08:42:35;1.20;;;1.20;;
10523;SDS011;5310;48.638;9.060;2024-03-08T08:45:02;1.10;;;1.10;;
10523;SDS011;5310;48.638;9.060;2024-03-08T08:47:28;1.10;;;1.10;;
10523;SDS011;5310;48.638;9.060;2024-03-08T08:49:54;1.10;;;1.10;;
10523;SDS011;5310;48.638;9.060;2024-03-08T08:52:20;1.10;;;1.10;;
10523;SDS011;5310;48.638;9.060;2024-03-08T08:54:46;1.10;;;1.10;;
10523;SDS011;5310;48.638;9.060;2024-03-08T08:57:14;1.10;;;1.10;;
10523;SDS011;5310;48.638;9.060;2024-03-08T08:59:40;1.07;;;1.07;;
10523;SDS011;5310;48.638;9.060;2024-03-08T09:02:06;1.10;;;1.10;;
10523;SDS011;5310;48.638;9.060;2024-03-08T09:04:33;1.10;;;1.10;;
10523;SDS011;5310;48.638;9.060;2024-03-08T09:07:00;1.10;;;1.10;;
10523;SDS011;5310;48.638;9.060;2024-03-08T09:09:26;1.00;;;1.00;;
10523;SDS011;5310;48.638;9.060;2024-03-08T09:11:52;1.10;;;1.10;;
10523;SDS011;5310;48.638;9.060;2024-03-08T09:14:19;1.10;;;1.10;;
10523;SDS011;5310;48.638;9.060;2024-03-08T09:16:45;1.10;;;1.10;;
10523;SDS011;5310;48.638;9.060;2024-03-08T09:19:12;1.10;;;1.10;;
10523;SDS011;5310;48.638;9.060;2024-03-08T09:21:38;1.17;;;1.17;;
10523;SDS011;5310;48.638;9.060;2024-03-08T09:24:05;1.10;;;1.10;;
10523;SDS011;5310;48.638;9.060;2024-03-08T09:26:31;1.10;;;1.10;;
10523;SDS011;5310;48.638;9.060;2024-03-08T09:28:58;1.10;;;1.10;;
10523;SDS011;5310;48.638;9.060;2024-03-08T09:31:24;1.10;;;1.10;;
10523;SDS011;5310;48.638;9.060;2024-03-08T09:33:50;1.10;;;1.10;;
10523;SDS011;5310;48.638;9.060;2024-03-08T09:36:16;1.10;;;1.10;;
10523;SDS011;5310;48.638;9.060;2024-03-08T09:38:43;1.07;;;1.07;;
10523;SDS011;5310;48.638;9.060;2024-03-08T09:41:09;1.10;;;1.10;;
10523;SDS011;5310;48.638;9.060;2024-03-08T09:43:38;1.10;;;1.10;;
10523;SDS011;5310;48.638;9.060;2024-03-08T09:46:04;1.10;;;1.10;;
10523;SDS011;5310;48.638;9.060;2024-03-08T09:48:36;1.10;;;1.10;;
10523;SDS011;5310;48.638;9.060;2024-03-08T09:51:02;1.00;;;1.00;;
10523;SDS011;5310;48.638;9.060;2024-03-08T09:53:29;1.10;;;1.10;;
10523;SDS011;5310;48.638;9.060;2024-03-08T09:55:56;1.10;;;1.10;;
10523;SDS011;5310;48.638;9.060;2024-03-08T09:58:22;1.10;;;1.10;;
10523;SDS011;5310;48.638;9.060;2024-03-08T10:01:00;1.00;;;1.00;;
10523;SDS011;5310;48.638;9.060;2024-03-08T10:03:32;1.10;;;1.10;;
10523;SDS011;5310;48.638;9.060;2024-03-08T10:05:58;1.00;;;1.00;;
10523;SDS011;5310;48.638;9.060;2024-03-08T10:08:27;1.10;;;1.10;;
10523;SDS011;5310;48.638;9.060;2024-03-08T10:10:54;1.10;;;1.10;;
10523;SDS011;5310;48.638;9.060;2024-03-08T10:13:20;1.10;;;1.10;;
10523;SDS011;5310;48.638;9.060;2024-03-08T10:15:46;1.00;;;1.00;;
10523;SDS011;5310;48.638;9.060;2024-03-08T10:18:12;1.00;;;1.00;;
10523;SDS011;5310;48.638;9.060;2024-03-08T10:20:38;1.00;;;1.00;;
10523;SDS011;5310;48.638;9.060;2024-03-08T10:23:04;1.00;;;1.00;;
10523;SDS011;5310;48.638;9.060;2024-03-08T10:25:30;1.00;;;1.00;;
10523;SDS011;5310;48.638;9.060;2024-03-08T10:27:56;1.00;;;1.00;;
10523;SDS011;5310;48.638;9.060;2024-03-08T10:30:22;1.00;;;1.00;;
10523;SDS011;5310;48.638;9.060;2024-03-08T10:32:49;1.00;;;1.00;;
10523;SDS011;5310;48.638;9.060;2024-03-08T10:35:15;1.00;;;1.00;;
10523;SDS011;5310;48.638;9.060;2024-03-08T10:37:48;1.00;;;1.00;;
10523;SDS011;5310;48.638;9.060;2024-03-08T10:40:18;1.00;;;1.00;;
10523;SDS011;5310;48.638;9.060;2024-03-08T10:45:26;1.00;;;1.00;;
10523;SDS011;5310;48.638;9.060;2024-03-08T10:47:58;1.10;;;1.10;;
10523;SDS011;5310;48.638;9.060;2024-03-08T10:50:41;1.00;;;1.00;;
10523;SDS011;5310;48.638;9.060;2024-03-08T10:53:10;1.10;;;1.10;;
10523;SDS011;5310;48.638;9.060;2024-03-08T10:55:38;1.00;;;1.00;;
10523;SDS011;5310;48.638;9.060;2024-03-08T10:58:05;1.00;;;1.00;;
10523;SDS011;5310;48.638;9.060;2024-03-08T11:00:33;0.90;;;0.90;;
10523;SDS011;5310;48.638;9.060;2024-03-08T11:02:59;0.90;;;0.90;;
10523;SDS011;5310;48.638;9.060;2024-03-08T11:05:32;1.00;;;1.00;;
10523;SDS011;5310;48.638;9.060;2024-03-08T11:08:03;0.90;;;0.90;;
10523;SDS011;5310;48.638;9.060;2024-03-08T11:10:46;1.00;;;1.00;;
10523;SDS011;5310;48.638;9.060;2024-03-08T11:13:33;0.97;;;0.97;;
10523;SDS011;5310;48.638;9.060;2024-03-08T11:16:02;1.00;;;1.00;;
10523;SDS011;5310;48.638;9.060;2024-03-08T11:18:32;1.10;;;1.10;;
10523;SDS011;5310;48.638;9.060;2024-03-08T11:21:02;0.90;;;0.90;;
10523;SDS011;5310;48.638;9.060;2024-03-08T11:23:31;0.90;;;0.90;;
10523;SDS011;5310;48.638;9.060;2024-03-08T11:25:58;0.90;;;0.90;;
10523;SDS011;5310;48.638;9.060;2024-03-08T11:28:24;0.90;;;0.90;;
10523;SDS011;5310;48.638;9.060;2024-03-08T11:33:29;0.90;;;0.90;;
10523;SDS011;5310;48.638;9.060;2024-03-08T11:36:07;0.90;;;0.90;;
10523;SDS011;5310;48.638;9.060;2024-03-08T11:38:41;0.90;;;0.90;;
10523;SDS011;5310;48.638;9.060;2024-03-08T11:41:08;0.90;;;0.90;;
10523;SDS011;5310;48.638;9.060;2024-03-08T11:43:39;0.90;;;0.90;;
10523;SDS011;5310;48.638;9.060;2024-03-08T11:46:09;0.90;;;0.90;;
10523;SDS011;5310;48.638;9.060;2024-03-08T11:48:37;0.90;;;0.90;;
10523;SDS011;5310;48.638;9.060;2024-03-08T11:51:03;1.00;;;1.00;;
10523;SDS011;5310;48.638;9.060;2024-03-08T11:53:30;0.90;;;0.90;;
10523;SDS011;5310;48.638;9.060;2024-03-08T11:56:05;0.90;;;0.90;;
10523;SDS011;5310;48.638;9.060;2024-03-08T11:58:34;0.90;;;0.90;;
10523;SDS011;5310;48.638;9.060;2024-03-08T12:01:04;1.00;;;1.00;;
10523;SDS011;5310;48.638;9.060;2024-03-08T12:03:37;1.00;;;1.00;;
10523;SDS011;5310;48.638;9.060;2024-03-08T12:06:03;1.00;;;1.00;;
10523;SDS011;5310;48.638;9.060;2024-03-08T12:08:32;0.93;;;0.93;;
10523;SDS011;5310;48.638;9.060;2024-03-08T12:10:58;1.00;;;1.00;;
10523;SDS011;5310;48.638;9.060;2024-03-08T12:13:27;0.93;;;0.93;;
10523;SDS011;5310;48.638;9.060;2024-03-08T12:15:55;0.90;;;0.90;;
10523;SDS011;5310;48.638;9.060;2024-03-08T12:18:24;0.90;;;0.90;;
10523;SDS011;5310;48.638;9.060;2024-03-08T12:20:51;0.90;;;0.90;;
10523;SDS011;5310;48.638;9.060;2024-03-08T12:23:17;0.90;;;0.90;;
10523;SDS011;5310;48.638;9.060;2024-03-08T12:25:43;0.80;;;0.80;;
10523;SDS011;5310;48.638;9.060;2024-03-08T12:28:09;0.90;;;0.90;;
10523;SDS011;5310;48.638;9.060;2024-03-08T12:30:47;1.00;;;1.00;;
10523;SDS011;5310;48.638;9.060;2024-03-08T12:33:13;1.00;;;1.00;;
10523;SDS011;5310;48.638;9.060;2024-03-08T12:35:39;0.90;;;0.90;;
10523;SDS011;5310;48.638;9.060;2024-03-08T12:38:05;0.90;;;0.90;;
10523;SDS011;5310;48.638;9.060;2024-03-08T12:40:33;0.90;;;0.90;;
10523;SDS011;5310;48.638;9.060;2024-03-08T12:43:00;1.00;;;1.00;;
10523;SDS011;5310;48.638;9.060;2024-03-08T12:45:27;0.90;;;0.90;;
10523;SDS011;5310;48.638;9.060;2024-03-08T12:47:54;1.00;;;1.00;;
10523;SDS011;5310;48.638;9.060;2024-03-08T12:50:23;1.00;;;1.00;;
10523;SDS011;5310;48.638;9.060;2024-03-08T12:52:52;1.00;;;1.00;;
10523;SDS011;5310;48.638;9.060;2024-03-08T12:55:18;1.00;;;1.00;;
10523;SDS011;5310;48.638;9.060;2024-03-08T12:57:44;1.00;;;1.00;;
10523;SDS011;5310;48.638;9.060;2024-03-08T13:00:10;0.90;;;0.90;;
10523;SDS011;5310;48.638;9.060;2024-03-08T13:02:47;1.03;;;1.03;;
10523;SDS011;5310;48.638;9.060;2024-03-08T13:05:13;0.90;;;0.90;;
10523;SDS011;5310;48.638;9.060;2024-03-08T13:07:39;0.90;;;0.90;;
10523;SDS011;5310;48.638;9.060;2024-03-08T13:10:10;0.90;;;0.90;;
10523;SDS011;5310;48.638;9.060;2024-03-08T13:12:39;1.00;;;1.00;;
10523;SDS011;5310;48.638;9.060;2024-03-08T13:15:06;1.00;;;1.00;;
10523;SDS011;5310;48.638;9.060;2024-03-08T13:17:33;0.90;;;0.90;;
10523;SDS011;5310;48.638;9.060;2024-03-08T13:19:59;0.90;;;0.90;;
10523;SDS011;5310;48.638;9.060;2024-03-08T13:22:25;0.97;;;0.97;;
10523;SDS011;5310;48.638;9.060;2024-03-08T13:24:52;0.90;;;0.90;;
10523;SDS011;5310;48.638;9.060;2024-03-08T13:27:18;0.83;;;0.83;;
10523;SDS011;5310;48.638;9.060;2024-03-08T13:29:47;1.00;;;1.00;;
10523;SDS011;5310;48.638;9.060;2024-03-08T13:32:16;0.90;;;0.90;;
10523;SDS011;5310;48.638;9.060;2024-03-08T13:34:42;0.90;;;0.90;;
10523;SDS011;5310;48.638;9.060;2024-03-08T13:37:10;1.00;;;1.00;;
10523;SDS011;5310;48.638;9.060;2024-03-08T13:39:36;0.93;;;0.93;;
10523;SDS011;5310;48.638;9.060;2024-03-08T13:42:07;1.00;;;1.00;;
10523;SDS011;5310;48.638;9.060;2024-03-08T13:44:38;1.00;;;1.00;;
10523;SDS011;5310;48.638;9.060;2024-03-08T13:47:04;0.90;;;0.90;;
10523;SDS011;5310;48.638;9.060;2024-03-08T13:49:30;0.90;;;0.90;;
10523;SDS011;5310;48.638;9.060;2024-03-08T13:51:56;1.00;;;1.00;;
10523;SDS011;5310;48.638;9.060;2024-03-08T13:54:24;1.00;;;1.00;;
10523;SDS011;5310;48.638;9.060;2024-03-08T13:56:52;0.90;;;0.90;;
10523;SDS011;5310;48.638;9.060;2024-03-08T13:59:19;0.90;;;0.90;;
10523;SDS011;5310;48.638;9.060;2024-03-08T14:01:47;0.90;;;0.90;;
10523;SDS011;5310;48.638;9.060;2024-03-08T14:04:16;0.90;;;0.90;;
10523;SDS011;5310;48.638;9.060;2024-03-08T14:06:42;0.90;;;0.90;;
10523;SDS011;5310;48.638;9.060;2024-03-08T14:09:10;1.00;;;1.00;;
10523;SDS011;5310;48.638;9.060;2024-03-08T14:11:41;0.90;;;0.90;;
10523;SDS011;5310;48.638;9.060;2024-03-08T14:14:09;0.90;;;0.90;;
10523;SDS011;5310;48.638;9.060;2024-03-08T14:16:35;0.90;;;0.90;;
10523;SDS011;5310;48.638;9.060;2024-03-08T14:19:02;0.90;;;0.90;;
10523;SDS011;5310;48.638;9.060;2024-03-08T14:21:30;1.00;;;1.00;;
10523;SDS011;5310;48.638;9.060;2024-03-08T14:23:56;1.00;;;1.00;;
10523;SDS011;5310;48.638;9.060;2024-03-08T14:26:22;0.90;;;0.90;;
10523;SDS011;5310;48.638;9.060;2024-03-08T14:28:48;1.00;;;1.00;;
10523;SDS011;5310;48.638;9.060;2024-03-08T14:31:19;0.80;;;0.80;;
10523;SDS011;5310;48.638;9.060;2024-03-08T14:33:45;1.00;;;1.00;;
10523;SDS011;5310;48.638;9.060;2024-03-08T14:36:14;1.00;;;1.00;;
10523;SDS011;5310;48.638;9.060;2024-03-08T14:38:42;1.00;;;1.00;;
10523;SDS011;5310;48.638;9.060;2024-03-08T14:41:08;1.00;;;1.00;;
10523;SDS011;5310;48.638;9.060;2024-03-08T14:43:34;1.00;;;1.00;;
10523;SDS011;5310;48.638;9.060;2024-03-08T14:46:00;1.00;;;1.00;;
10523;SDS011;5310;48.638;9.060;2024-03-08T14:48:26;1.00;;;1.00;;
10523;SDS011;5310;48.638;9.060;2024-03-08T14:50:52;1.00;;;1.00;;
10523;SDS011;5310;48.638;9.060;2024-03-08T14:53:18;1.00;;;1.00;;
10523;SDS011;5310;48.638;9.060;2024-03-08T14:55:44;1.10;;;1.10;;
10523;SDS011;5310;48.638;9.060;2024-03-08T14:58:12;1.00;;;1.00;;
10523;SDS011;5310;48.638;9.060;2024-03-08T15:00:38;0.93;;;0.93;;
10523;SDS011;5310;48.638;9.060;2024-03-08T15:03:06;1.00;;;1.00;;
10523;SDS011;5310;48.638;9.060;2024-03-08T15:05:36;1.00;;;1.00;;